Pagrindinis puslapis
METAR-TAF:

METAR-TAF

Oro uostai :

Apartado, Kolumbija

platuma: 07-49N, ilguma: 076-42W, Aukštis: 20 m

Dabartinis oras

Ataskaita buvo paskelbta 7 valandos ir 42 minutes, ne 23:00 UTC
Vėjas 4 kt iš Pietryčių
Temperatūra 28°C
Drėgmė 84%
Slėgis 1011 hPa
Matomumas 10 km arba daugiau
Mažai debesys ne aukštis 1500 ft, Liūtiniai kamuoliniai debesys.
Su prošvaistėmis ne aukštis 1700 ft
perkūnija

METAR: SKLC 292300Z 14004KT 9999 TS FEW015CB BKN017 28/25 A2986 RMK CB/E VCSH/E/SE

Laikas: 01:42 (06:42 UTC)


TAF: trūkstamas

Orai ataskaitas ir orų prognozės (METAR, TAF).

turimą stotys yra geltonos ir raudonos taškus žemėlapyje.

Perkelti pele per norėdami pamatyti stoties vardą.

Tada spustelėkite, norėdami matyti oro stebėjimo ir prognozės.

Norėdami pakeisti žemėlapį: spustelėkite ant žalios mygtukų su juodo kryžiaus žemyn,; žalią mygtuką su brūkšneliu, jei norite nutolinti; arba žalių rodyklių gretimoms žemėlapius.


METAR-TAF: